sensor_id;sensor_type;location;lat;lon;timestamp;pressure;altitude;pressure_sealevel;temperature;humidity
46778;BME280;32536;47.128;8.746;2023-03-01T00:01:29;91774.13;;;3.32;53.92
46778;BME280;32536;47.128;8.746;2023-03-01T00:03:57;91774.13;;;3.32;54.11
46778;BME280;32536;47.128;8.746;2023-03-01T00:06:26;91763.50;;;3.28;53.98
46778;BME280;32536;47.128;8.746;2023-03-01T00:08:53;91772.97;;;3.29;53.85
46778;BME280;32536;47.128;8.746;2023-03-01T00:11:26;91763.81;;;3.23;53.73
46778;BME280;32536;47.128;8.746;2023-03-01T00:13:56;91774.03;;;3.25;54.26
46778;BME280;32536;47.128;8.746;2023-03-01T00:16:30;91765.69;;;3.23;53.90
46778;BME280;32536;47.128;8.746;2023-03-01T00:19:02;91771.06;;;3.26;53.91
46778;BME280;32536;47.128;8.746;2023-03-01T00:21:29;91762.31;;;3.26;53.96
46778;BME280;32536;47.128;8.746;2023-03-01T00:23:56;91762.28;;;3.22;53.72
46778;BME280;32536;47.128;8.746;2023-03-01T00:26:24;91757.28;;;3.17;53.94
46778;BME280;32536;47.128;8.746;2023-03-01T00:28:52;91757.88;;;3.07;54.03
46778;BME280;32536;47.128;8.746;2023-03-01T00:31:21;91762.34;;;3.02;54.26
46778;BME280;32536;47.128;8.746;2023-03-01T00:33:55;91761.16;;;3.00;54.14
46778;BME280;32536;47.128;8.746;2023-03-01T00:36:24;91759.63;;;2.99;54.35
46778;BME280;32536;47.128;8.746;2023-03-01T00:38:53;91758.47;;;2.96;54.29
46778;BME280;32536;47.128;8.746;2023-03-01T00:41:20;91758.00;;;2.91;54.18
46778;BME280;32536;47.128;8.746;2023-03-01T00:43:53;91753.78;;;2.86;53.89
46778;BME280;32536;47.128;8.746;2023-03-01T00:46:23;91762.41;;;2.83;54.14
46778;BME280;32536;47.128;8.746;2023-03-01T00:48:51;91751.81;;;2.83;54.29
46778;BME280;32536;47.128;8.746;2023-03-01T00:51:21;91754.47;;;2.83;54.17
46778;BME280;32536;47.128;8.746;2023-03-01T00:53:51;91747.31;;;2.83;54.24
46778;BME280;32536;47.128;8.746;2023-03-01T00:56:20;91751.13;;;2.86;54.35
46778;BME280;32536;47.128;8.746;2023-03-01T00:58:47;91751.50;;;2.88;54.41
46778;BME280;32536;47.128;8.746;2023-03-01T01:01:20;91746.66;;;2.90;53.92
46778;BME280;32536;47.128;8.746;2023-03-01T01:03:52;91747.06;;;2.92;53.98
46778;BME280;32536;47.128;8.746;2023-03-01T01:06:39;91741.34;;;2.90;53.72
46778;BME280;32536;47.128;8.746;2023-03-01T01:09:15;91741.34;;;2.90;54.15
46778;BME280;32536;47.128;8.746;2023-03-01T01:11:50;91734.47;;;2.85;54.26
46778;BME280;32536;47.128;8.746;2023-03-01T01:14:18;91735.94;;;2.83;54.01
46778;BME280;32536;47.128;8.746;2023-03-01T01:16:45;91726.78;;;2.77;54.30
46778;BME280;32536;47.128;8.746;2023-03-01T01:19:12;91728.84;;;2.64;54.32
46778;BME280;32536;47.128;8.746;2023-03-01T01:21:39;91727.59;;;2.58;54.74
46778;BME280;32536;47.128;8.746;2023-03-01T01:24:09;91727.59;;;2.58;54.82
46778;BME280;32536;47.128;8.746;2023-03-01T01:26:36;91721.59;;;2.61;54.35
46778;BME280;32536;47.128;8.746;2023-03-01T01:29:04;91714.09;;;2.63;54.39
46778;BME280;32536;47.128;8.746;2023-03-01T01:31:32;91701.59;;;2.63;54.54
46778;BME280;32536;47.128;8.746;2023-03-01T01:34:01;91706.53;;;2.65;54.41
46778;BME280;32536;47.128;8.746;2023-03-01T01:36:29;91705.84;;;2.68;54.13
46778;BME280;32536;47.128;8.746;2023-03-01T01:38:56;91710.09;;;2.72;54.42
46778;BME280;32536;47.128;8.746;2023-03-01T01:41:25;91712.00;;;2.76;54.19
46778;BME280;32536;47.128;8.746;2023-03-01T01:50:11;91704.56;;;2.58;53.77
46778;BME280;32536;47.128;8.746;2023-03-01T01:52:35;91701.72;;;2.47;53.08
46778;BME280;32536;47.128;8.746;2023-03-01T01:55:11;91687.69;;;2.43;53.37
46778;BME280;32536;47.128;8.746;2023-03-01T01:57:44;91686.84;;;2.39;53.51
46778;BME280;32536;47.128;8.746;2023-03-01T02:00:20;91695.88;;;2.38;52.98
46778;BME280;32536;47.128;8.746;2023-03-01T02:02:52;91688.66;;;2.35;53.20
46778;BME280;32536;47.128;8.746;2023-03-01T02:05:45;91687.06;;;2.30;52.18
46778;BME280;32536;47.128;8.746;2023-03-01T02:08:16;91690.75;;;2.26;52.54
46778;BME280;32536;47.128;8.746;2023-03-01T02:10:46;91680.97;;;2.26;53.33
46778;BME280;32536;47.128;8.746;2023-03-01T02:13:13;91691.78;;;2.17;52.48
46778;BME280;32536;47.128;8.746;2023-03-01T02:15:41;91679.53;;;2.09;52.69
46778;BME280;32536;47.128;8.746;2023-03-01T02:18:12;91684.69;;;2.02;52.15
46778;BME280;32536;47.128;8.746;2023-03-01T02:21:00;91684.25;;;2.00;52.75
46778;BME280;32536;47.128;8.746;2023-03-01T02:23:38;91677.50;;;2.02;53.40
46778;BME280;32536;47.128;8.746;2023-03-01T02:29:07;91682.50;;;2.07;53.18
46778;BME280;32536;47.128;8.746;2023-03-01T02:31:34;91668.53;;;2.07;53.02
46778;BME280;32536;47.128;8.746;2023-03-01T02:34:11;91664.38;;;2.06;51.78
46778;BME280;32536;47.128;8.746;2023-03-01T02:36:48;91662.09;;;2.04;52.39
46778;BME280;32536;47.128;8.746;2023-03-01T02:39:25;91665.16;;;2.06;53.21
46778;BME280;32536;47.128;8.746;2023-03-01T02:42:12;91666.38;;;2.13;53.00
46778;BME280;32536;47.128;8.746;2023-03-01T02:44:41;91658.22;;;2.21;53.34
46778;BME280;32536;47.128;8.746;2023-03-01T02:47:08;91661.28;;;2.23;52.90
46778;BME280;32536;47.128;8.746;2023-03-01T02:49:36;91653.75;;;2.26;52.61
46778;BME280;32536;47.128;8.746;2023-03-01T02:55:12;91646.25;;;2.28;52.70
46778;BME280;32536;47.128;8.746;2023-03-01T02:57:43;91657.56;;;2.28;52.75
46778;BME280;32536;47.128;8.746;2023-03-01T03:00:14;91648.19;;;2.31;53.12
46778;BME280;32536;47.128;8.746;2023-03-01T03:02:54;91646.38;;;2.35;52.66
46778;BME280;32536;47.128;8.746;2023-03-01T03:05:25;91648.28;;;2.38;53.10
46778;BME280;32536;47.128;8.746;2023-03-01T03:08:07;91652.47;;;2.39;52.37
46778;BME280;32536;47.128;8.746;2023-03-01T03:10:39;91647.59;;;2.41;52.72
46778;BME280;32536;47.128;8.746;2023-03-01T03:13:09;91647.91;;;2.36;52.31
46778;BME280;32536;47.128;8.746;2023-03-01T03:15:40;91648.22;;;2.34;52.85
46778;BME280;32536;47.128;8.746;2023-03-01T03:18:12;91639.91;;;2.32;52.86
46778;BME280;32536;47.128;8.746;2023-03-01T03:20:42;91637.63;;;2.31;52.58
46778;BME280;32536;47.128;8.746;2023-03-01T03:23:10;91644.34;;;2.28;52.63
46778;BME280;32536;47.128;8.746;2023-03-01T03:25:37;91646.25;;;2.28;52.81
46778;BME280;32536;47.128;8.746;2023-03-01T03:28:05;91636.50;;;2.32;52.73
46778;BME280;32536;47.128;8.746;2023-03-01T03:30:38;91639.97;;;2.36;52.75
46778;BME280;32536;47.128;8.746;2023-03-01T03:33:06;91639.19;;;2.35;52.49
46778;BME280;32536;47.128;8.746;2023-03-01T03:35:45;91635.69;;;2.28;50.38
46778;BME280;32536;47.128;8.746;2023-03-01T03:38:14;91641.31;;;2.26;52.77
46778;BME280;32536;47.128;8.746;2023-03-01T03:40:46;91637.50;;;2.23;52.44
46778;BME280;32536;47.128;8.746;2023-03-01T03:43:31;91632.97;;;2.24;52.73
46778;BME280;32536;47.128;8.746;2023-03-01T03:46:00;91629.97;;;2.26;52.60
46778;BME280;32536;47.128;8.746;2023-03-01T03:48:36;91625.78;;;2.24;52.55
46778;BME280;32536;47.128;8.746;2023-03-01T03:51:05;91630.38;;;2.28;53.05
46778;BME280;32536;47.128;8.746;2023-03-01T03:53:32;91636.78;;;2.27;52.80
46778;BME280;32536;47.128;8.746;2023-03-01T03:55:59;91633.03;;;2.28;52.73
46778;BME280;32536;47.128;8.746;2023-03-01T03:58:26;91630.03;;;2.29;52.91
46778;BME280;32536;47.128;8.746;2023-03-01T04:00:55;91628.16;;;2.30;53.03
46778;BME280;32536;47.128;8.746;2023-03-01T04:03:25;91629.22;;;2.25;52.61
46778;BME280;32536;47.128;8.746;2023-03-01T04:05:52;91624.28;;;2.23;52.94
46778;BME280;32536;47.128;8.746;2023-03-01T04:08:21;91621.28;;;2.25;52.82
46778;BME280;32536;47.128;8.746;2023-03-01T04:10:55;91620.94;;;2.27;52.65
46778;BME280;32536;47.128;8.746;2023-03-01T04:13:46;91635.78;;;2.35;53.18
46778;BME280;32536;47.128;8.746;2023-03-01T04:16:13;91640.38;;;2.38;52.78
46778;BME280;32536;47.128;8.746;2023-03-01T04:18:40;91633.34;;;2.46;52.80
46778;BME280;32536;47.128;8.746;2023-03-01T04:21:06;91627.75;;;2.51;53.04
46778;BME280;32536;47.128;8.746;2023-03-01T04:23:33;91634.97;;;2.54;53.11
46778;BME280;32536;47.128;8.746;2023-03-01T04:26:00;91637.97;;;2.52;52.74
46778;BME280;32536;47.128;8.746;2023-03-01T04:28:28;91635.78;;;2.35;52.79
46778;BME280;32536;47.128;8.746;2023-03-01T04:30:58;91638.25;;;2.24;53.62
46778;BME280;32536;47.128;8.746;2023-03-01T04:33:30;91636.72;;;2.23;53.85
46778;BME280;32536;47.128;8.746;2023-03-01T04:35:57;91632.63;;;2.26;53.86
46778;BME280;32536;47.128;8.746;2023-03-01T04:38:23;91637.09;;;2.21;53.75
46778;BME280;32536;47.128;8.746;2023-03-01T04:40:50;91637.25;;;2.09;53.74
46778;BME280;32536;47.128;8.746;2023-03-01T04:43:17;91642.06;;;2.03;54.25
46778;BME280;32536;47.128;8.746;2023-03-01T04:45:44;91644.56;;;1.96;54.28
46778;BME280;32536;47.128;8.746;2023-03-01T04:48:11;91639.94;;;1.89;54.13
46778;BME280;32536;47.128;8.746;2023-03-01T04:50:37;91634.09;;;1.80;54.24
46778;BME280;32536;47.128;8.746;2023-03-01T04:53:04;91633.94;;;1.73;54.69
46778;BME280;32536;47.128;8.746;2023-03-01T04:55:31;91631.25;;;1.69;54.50
46778;BME280;32536;47.128;8.746;2023-03-01T04:57:58;91630.78;;;1.64;54.50
46778;BME280;32536;47.128;8.746;2023-03-01T05:00:24;91626.03;;;1.53;54.43
46778;BME280;32536;47.128;8.746;2023-03-01T05:02:54;91619.06;;;1.45;54.57
46778;BME280;32536;47.128;8.746;2023-03-01T05:05:31;91614.91;;;1.44;54.54
46778;BME280;32536;47.128;8.746;2023-03-01T05:08:15;91609.31;;;1.46;54.98
46778;BME280;32536;47.128;8.746;2023-03-01T05:10:51;91614.56;;;1.46;54.77
46778;BME280;32536;47.128;8.746;2023-03-01T05:13:19;91615.69;;;1.44;54.98
46778;BME280;32536;47.128;8.746;2023-03-01T05:16:00;91619.78;;;1.42;54.93
46778;BME280;32536;47.128;8.746;2023-03-01T05:18:30;91610.69;;;1.39;54.94
46778;BME280;32536;47.128;8.746;2023-03-01T05:21:09;91602.84;;;1.43;54.85
46778;BME280;32536;47.128;8.746;2023-03-01T05:23:38;91606.66;;;1.46;54.90
46778;BME280;32536;47.128;8.746;2023-03-01T05:26:06;91608.13;;;1.43;54.59
46778;BME280;32536;47.128;8.746;2023-03-01T05:28:34;91603.16;;;1.41;55.17
46778;BME280;32536;47.128;8.746;2023-03-01T05:31:01;91602.50;;;1.44;55.27
46778;BME280;32536;47.128;8.746;2023-03-01T05:33:28;91600.28;;;1.47;54.89
46778;BME280;32536;47.128;8.746;2023-03-01T05:35:59;91593.84;;;1.48;55.36
46778;BME280;32536;47.128;8.746;2023-03-01T05:38:26;91597.00;;;1.53;55.13
46778;BME280;32536;47.128;8.746;2023-03-01T05:40:53;91594.78;;;1.55;54.93
46778;BME280;32536;47.128;8.746;2023-03-01T05:43:20;91592.13;;;1.55;54.91
46778;BME280;32536;47.128;8.746;2023-03-01T05:45:46;91589.84;;;1.54;55.38
46778;BME280;32536;47.128;8.746;2023-03-01T05:48:13;91591.34;;;1.55;54.99
46778;BME280;32536;47.128;8.746;2023-03-01T05:50:43;91581.94;;;1.54;54.80
46778;BME280;32536;47.128;8.746;2023-03-01T05:53:20;91581.09;;;1.50;54.84
46778;BME280;32536;47.128;8.746;2023-03-01T05:55:47;91584.44;;;1.47;54.96
46778;BME280;32536;47.128;8.746;2023-03-01T05:58:19;91575.72;;;1.46;55.13
46778;BME280;32536;47.128;8.746;2023-03-01T06:00:48;91579.09;;;1.43;55.12
46778;BME280;32536;47.128;8.746;2023-03-01T06:03:17;91575.94;;;1.37;54.99
46778;BME280;32536;47.128;8.746;2023-03-01T06:05:44;91575.88;;;1.34;55.13
46778;BME280;32536;47.128;8.746;2023-03-01T06:08:20;91572.81;;;1.32;55.27
46778;BME280;32536;47.128;8.746;2023-03-01T06:10:47;91572.00;;;1.27;55.21
46778;BME280;32536;47.128;8.746;2023-03-01T06:13:14;91566.66;;;1.24;55.21
46778;BME280;32536;47.128;8.746;2023-03-01T06:15:41;91563.25;;;1.23;55.36
46778;BME280;32536;47.128;8.746;2023-03-01T06:18:08;91569.72;;;1.26;55.50
46778;BME280;32536;47.128;8.746;2023-03-01T06:20:35;91571.28;;;1.31;55.61
46778;BME280;32536;47.128;8.746;2023-03-01T06:23:01;91574.00;;;1.34;55.29
46778;BME280;32536;47.128;8.746;2023-03-01T06:25:28;91566.50;;;1.36;55.62
46778;BME280;32536;47.128;8.746;2023-03-01T06:27:55;91570.66;;;1.37;55.27
46778;BME280;32536;47.128;8.746;2023-03-01T06:30:24;91573.31;;;1.37;55.23
46778;BME280;32536;47.128;8.746;2023-03-01T06:32:52;91568.03;;;1.37;55.06
46778;BME280;32536;47.128;8.746;2023-03-01T06:35:26;91566.50;;;1.36;55.24
46778;BME280;32536;47.128;8.746;2023-03-01T06:37:58;91567.28;;;1.37;55.26
46778;BME280;32536;47.128;8.746;2023-03-01T06:40:26;91570.00;;;1.40;55.22
46778;BME280;32536;47.128;8.746;2023-03-01T06:42:53;91575.66;;;1.42;55.38
46778;BME280;32536;47.128;8.746;2023-03-01T06:45:20;91565.09;;;1.42;55.54
46778;BME280;32536;47.128;8.746;2023-03-01T06:47:47;91574.13;;;1.41;55.01
46778;BME280;32536;47.128;8.746;2023-03-01T06:50:15;91573.03;;;1.42;55.31
46778;BME280;32536;47.128;8.746;2023-03-01T06:52:43;91571.56;;;1.45;55.23
46778;BME280;32536;47.128;8.746;2023-03-01T06:55:11;91568.53;;;1.43;55.29
46778;BME280;32536;47.128;8.746;2023-03-01T06:57:38;91582.41;;;1.40;55.30
46778;BME280;32536;47.128;8.746;2023-03-01T07:00:06;91576.03;;;1.41;55.24
46778;BME280;32536;47.128;8.746;2023-03-01T07:02:33;91572.63;;;1.40;55.10
46778;BME280;32536;47.128;8.746;2023-03-01T07:05:00;91568.47;;;1.39;55.50
46778;BME280;32536;47.128;8.746;2023-03-01T07:07:27;91563.50;;;1.38;55.30
46778;BME280;32536;47.128;8.746;2023-03-01T07:09:54;91566.94;;;1.38;55.12
46778;BME280;32536;47.128;8.746;2023-03-01T07:12:20;91571.78;;;1.36;55.49
46778;BME280;32536;47.128;8.746;2023-03-01T07:14:47;91558.16;;;1.34;55.51
46778;BME280;32536;47.128;8.746;2023-03-01T07:17:14;91572.50;;;1.33;55.41
46778;BME280;32536;47.128;8.746;2023-03-01T07:19:41;91564.91;;;1.32;55.67
46778;BME280;32536;47.128;8.746;2023-03-01T07:22:07;91572.41;;;1.30;55.45
46778;BME280;32536;47.128;8.746;2023-03-01T07:24:35;91570.59;;;1.34;55.47
46778;BME280;32536;47.128;8.746;2023-03-01T07:27:02;91567.22;;;1.33;55.53
46778;BME280;32536;47.128;8.746;2023-03-01T07:29:29;91575.47;;;1.32;55.50
46778;BME280;32536;47.128;8.746;2023-03-01T07:31:55;91575.38;;;1.28;55.47
46778;BME280;32536;47.128;8.746;2023-03-01T07:34:22;91564.38;;;1.22;55.23
46778;BME280;32536;47.128;8.746;2023-03-01T07:36:49;91571.03;;;1.16;55.42
46778;BME280;32536;47.128;8.746;2023-03-01T07:39:16;91573.25;;;1.14;55.50
46778;BME280;32536;47.128;8.746;2023-03-01T07:41:43;91572.81;;;1.12;55.41
46778;BME280;32536;47.128;8.746;2023-03-01T07:44:09;91564.91;;;1.12;55.65
46778;BME280;32536;47.128;8.746;2023-03-01T07:46:36;91572.47;;;1.14;55.58
46778;BME280;32536;47.128;8.746;2023-03-01T07:49:03;91568.31;;;1.13;55.69
46778;BME280;32536;47.128;8.746;2023-03-01T07:51:31;91564.06;;;1.08;55.64
46778;BME280;32536;47.128;8.746;2023-03-01T07:53:57;91563.22;;;1.04;55.86
46778;BME280;32536;47.128;8.746;2023-03-01T07:56:24;91566.63;;;1.04;55.99
46778;BME280;32536;47.128;8.746;2023-03-01T07:58:51;91564.06;;;1.08;55.96
46778;BME280;32536;47.128;8.746;2023-03-01T08:01:19;91567.97;;;1.14;55.79
46778;BME280;32536;47.128;8.746;2023-03-01T08:03:47;91566.50;;;1.17;55.67
46778;BME280;32536;47.128;8.746;2023-03-01T08:06:17;91563.19;;;1.20;55.68
46778;BME280;32536;47.128;8.746;2023-03-01T08:08:44;91565.03;;;1.19;55.87
46778;BME280;32536;47.128;8.746;2023-03-01T08:11:13;91552.56;;;1.16;55.63
46778;BME280;32536;47.128;8.746;2023-03-01T08:13:41;91556.97;;;1.12;55.85
46778;BME280;32536;47.128;8.746;2023-03-01T08:16:13;91550.09;;;1.07;55.63
46778;BME280;32536;47.128;8.746;2023-03-01T08:18:41;91544.06;;;1.07;55.90
46778;BME280;32536;47.128;8.746;2023-03-01T08:21:13;91552.34;;;1.05;55.79
46778;BME280;32536;47.128;8.746;2023-03-01T08:23:42;91551.91;;;1.03;55.81
46778;BME280;32536;47.128;8.746;2023-03-01T08:26:18;91553.72;;;0.99;55.67
46778;BME280;32536;47.128;8.746;2023-03-01T08:28:47;91549.13;;;0.96;55.69
46778;BME280;32536;47.128;8.746;2023-03-01T08:31:24;91552.88;;;0.95;55.97
46778;BME280;32536;47.128;8.746;2023-03-01T08:33:57;91556.97;;;0.92;55.87
46778;BME280;32536;47.128;8.746;2023-03-01T08:36:27;91551.34;;;0.94;56.03
46778;BME280;32536;47.128;8.746;2023-03-01T08:38:58;91548.69;;;0.94;55.84
46778;BME280;32536;47.128;8.746;2023-03-01T08:41:25;91544.28;;;0.98;55.90
46778;BME280;32536;47.128;8.746;2023-03-01T08:43:53;91552.94;;;0.99;56.15
46778;BME280;32536;47.128;8.746;2023-03-01T08:46:35;91548.53;;;1.03;55.94
46778;BME280;32536;47.128;8.746;2023-03-01T08:49:04;91542.53;;;1.06;55.92
46778;BME280;32536;47.128;8.746;2023-03-01T08:51:33;91542.19;;;1.07;55.95
46778;BME280;32536;47.128;8.746;2023-03-01T08:54:06;91547.88;;;1.09;55.98
46778;BME280;32536;47.128;8.746;2023-03-01T08:56:36;91547.88;;;1.09;55.77
46778;BME280;32536;47.128;8.746;2023-03-01T08:59:03;91544.81;;;1.07;55.68
46778;BME280;32536;47.128;8.746;2023-03-01T09:01:30;91549.78;;;1.09;56.29
46778;BME280;32536;47.128;8.746;2023-03-01T09:03:57;91539.63;;;1.11;55.94
46778;BME280;32536;47.128;8.746;2023-03-01T09:06:24;91540.81;;;1.14;56.27
46778;BME280;32536;47.128;8.746;2023-03-01T09:08:51;91533.38;;;1.19;56.07
46778;BME280;32536;47.128;8.746;2023-03-01T09:11:19;91530.75;;;1.19;55.75
46778;BME280;32536;47.128;8.746;2023-03-01T09:13:48;91527.81;;;1.24;55.82
46778;BME280;32536;47.128;8.746;2023-03-01T09:16:17;91528.78;;;1.36;56.03
46778;BME280;32536;47.128;8.746;2023-03-01T09:18:45;91526.03;;;1.28;55.57
46778;BME280;32536;47.128;8.746;2023-03-01T09:21:19;91519.97;;;1.28;55.88
46778;BME280;32536;47.128;8.746;2023-03-01T09:23:47;91532.53;;;1.35;55.76
46778;BME280;32536;47.128;8.746;2023-03-01T09:26:18;91523.16;;;1.37;55.76
46778;BME280;32536;47.128;8.746;2023-03-01T09:28:47;91521.69;;;1.40;55.83
46778;BME280;32536;47.128;8.746;2023-03-01T09:31:16;91520.22;;;1.42;55.74
46778;BME280;32536;47.128;8.746;2023-03-01T09:33:47;91522.50;;;1.44;56.10
46778;BME280;32536;47.128;8.746;2023-03-01T09:36:17;91521.13;;;1.50;55.84
46778;BME280;32536;47.128;8.746;2023-03-01T09:38:46;91520.38;;;1.50;55.66
46778;BME280;32536;47.128;8.746;2023-03-01T09:43:47;91515.88;;;1.50;55.78
46778;BME280;32536;47.128;8.746;2023-03-01T09:46:22;91516.31;;;1.56;55.94
46778;BME280;32536;47.128;8.746;2023-03-01T09:48:55;91523.63;;;1.63;55.84
46778;BME280;32536;47.128;8.746;2023-03-01T09:51:33;91519.50;;;1.65;55.81
46778;BME280;32536;47.128;8.746;2023-03-01T09:54:02;91510.81;;;1.65;55.71
46778;BME280;32536;47.128;8.746;2023-03-01T09:56:41;91503.31;;;1.67;55.94
46778;BME280;32536;47.128;8.746;2023-03-01T09:59:26;91503.78;;;1.72;55.83
46778;BME280;32536;47.128;8.746;2023-03-01T10:04:51;91503.78;;;1.72;55.96
46778;BME280;32536;47.128;8.746;2023-03-01T10:11:03;91505.41;;;1.81;55.58
46778;BME280;32536;47.128;8.746;2023-03-01T10:13:55;91495.63;;;1.81;55.46
46778;BME280;32536;47.128;8.746;2023-03-01T10:16:50;91500.72;;;1.94;55.72
46778;BME280;32536;47.128;8.746;2023-03-01T10:19:42;91506.94;;;2.05;55.71
46778;BME280;32536;47.128;8.746;2023-03-01T10:24:40;91491.06;;;2.05;55.04
46778;BME280;32536;47.128;8.746;2023-03-01T10:27:16;91493.72;;;2.05;55.49
46778;BME280;32536;47.128;8.746;2023-03-01T10:30:05;91493.50;;;2.14;55.64
46778;BME280;32536;47.128;8.746;2023-03-01T10:32:44;91491.72;;;2.21;55.65
46778;BME280;32536;47.128;8.746;2023-03-01T10:35:26;91493.34;;;2.30;55.40
46778;BME280;32536;47.128;8.746;2023-03-01T10:38:08;91495.69;;;2.35;55.33
46778;BME280;32536;47.128;8.746;2023-03-01T10:40:50;91498.84;;;2.44;55.76
46778;BME280;32536;47.128;8.746;2023-03-01T10:43:21;91499.97;;;2.43;55.28
46778;BME280;32536;47.128;8.746;2023-03-01T10:45:48;91496.44;;;2.35;55.64
46778;BME280;32536;47.128;8.746;2023-03-01T10:48:18;91489.63;;;2.34;55.07
46778;BME280;32536;47.128;8.746;2023-03-01T10:51:04;91486.22;;;2.34;55.35
46778;BME280;32536;47.128;8.746;2023-03-01T10:53:35;91482.47;;;2.35;55.52
46778;BME280;32536;47.128;8.746;2023-03-01T10:56:22;91481.75;;;2.38;55.77
46778;BME280;32536;47.128;8.746;2023-03-01T10:59:04;91474.94;;;2.37;55.31
46778;BME280;32536;47.128;8.746;2023-03-01T11:01:36;91483.63;;;2.37;55.08
46778;BME280;32536;47.128;8.746;2023-03-01T11:06:37;91485.41;;;2.30;55.45
46778;BME280;32536;47.128;8.746;2023-03-01T11:09:20;91493.31;;;2.26;55.76
46778;BME280;32536;47.128;8.746;2023-03-01T11:11:52;91486.53;;;2.29;55.59
46778;BME280;32536;47.128;8.746;2023-03-01T11:17:04;91491.56;;;2.37;55.13
46778;BME280;32536;47.128;8.746;2023-03-01T11:19:39;91484.16;;;2.47;55.49
46778;BME280;32536;47.128;8.746;2023-03-01T11:22:12;91485.81;;;2.59;54.88
46778;BME280;32536;47.128;8.746;2023-03-01T11:24:48;91476.28;;;2.50;54.94
46778;BME280;32536;47.128;8.746;2023-03-01T11:27:32;91466.72;;;2.42;54.84
46778;BME280;32536;47.128;8.746;2023-03-01T11:30:27;91471.25;;;2.45;55.01
46778;BME280;32536;47.128;8.746;2023-03-01T11:35:55;91458.97;;;2.56;54.90
46778;BME280;32536;47.128;8.746;2023-03-01T11:38:32;91462.78;;;2.59;55.04
46778;BME280;32536;47.128;8.746;2023-03-01T11:44:10;91457.50;;;2.59;55.33
46778;BME280;32536;47.128;8.746;2023-03-01T11:56:38;91456.72;;;2.59;54.88
46778;BME280;32536;47.128;8.746;2023-03-01T12:05:42;91441.25;;;2.61;55.46
46778;BME280;32536;47.128;8.746;2023-03-01T12:11:28;91436.16;;;2.75;54.92
46778;BME280;32536;47.128;8.746;2023-03-01T12:14:49;91443.38;;;2.82;55.20
46778;BME280;32536;47.128;8.746;2023-03-01T12:17:31;91443.75;;;2.80;55.05
46778;BME280;32536;47.128;8.746;2023-03-01T12:20:36;91442.22;;;2.79;54.88
46778;BME280;32536;47.128;8.746;2023-03-01T12:26:23;91435.50;;;2.85;55.01
46778;BME280;32536;47.128;8.746;2023-03-01T12:29:23;91440.84;;;2.89;54.70
46778;BME280;32536;47.128;8.746;2023-03-01T12:37:42;91425.69;;;2.86;54.75
46778;BME280;32536;47.128;8.746;2023-03-01T12:51:36;91421.72;;;2.69;54.95
46778;BME280;32536;47.128;8.746;2023-03-01T12:54:26;91410.25;;;2.58;55.30
46778;BME280;32536;47.128;8.746;2023-03-01T12:56:55;91404.91;;;2.54;55.32
46778;BME280;32536;47.128;8.746;2023-03-01T12:59:39;91410.59;;;2.56;55.22
46778;BME280;32536;47.128;8.746;2023-03-01T13:02:24;91402.63;;;2.52;55.26
46778;BME280;32536;47.128;8.746;2023-03-01T13:07:54;91395.75;;;2.48;55.29
46778;BME280;32536;47.128;8.746;2023-03-01T13:10:34;91385.59;;;2.50;55.14
46778;BME280;32536;47.128;8.746;2023-03-01T13:15:49;91394.69;;;2.52;55.16
46778;BME280;32536;47.128;8.746;2023-03-01T13:20:49;91407.59;;;2.58;55.19
46778;BME280;32536;47.128;8.746;2023-03-01T13:49:45;91421.06;;;2.79;55.25
46778;BME280;32536;47.128;8.746;2023-03-01T13:54:55;91423.75;;;2.83;55.51
46778;BME280;32536;47.128;8.746;2023-03-01T13:57:27;91417.34;;;2.84;55.60
46778;BME280;32536;47.128;8.746;2023-03-01T13:59:58;91417.78;;;2.90;55.44
46778;BME280;32536;47.128;8.746;2023-03-01T14:02:25;91425.00;;;2.93;55.46
46778;BME280;32536;47.128;8.746;2023-03-01T14:04:59;91426.53;;;2.94;55.58
46778;BME280;32536;47.128;8.746;2023-03-01T14:07:27;91410.72;;;3.01;55.29
46778;BME280;32536;47.128;8.746;2023-03-01T14:10:00;91408.88;;;3.05;55.29
46778;BME280;32536;47.128;8.746;2023-03-01T14:12:42;91403.63;;;3.09;55.43
46778;BME280;32536;47.128;8.746;2023-03-01T14:15:27;91410.50;;;3.17;55.39
46778;BME280;32536;47.128;8.746;2023-03-01T14:18:44;91406.03;;;3.21;54.74
46778;BME280;32536;47.128;8.746;2023-03-01T14:21:17;91404.59;;;3.31;55.02
46778;BME280;32536;47.128;8.746;2023-03-01T14:23:45;91399.69;;;3.33;54.86
46778;BME280;32536;47.128;8.746;2023-03-01T14:26:12;91397.44;;;3.35;55.03
46778;BME280;32536;47.128;8.746;2023-03-01T14:28:42;91400.03;;;3.28;54.72
46778;BME280;32536;47.128;8.746;2023-03-01T14:31:37;91399.97;;;3.20;55.01
46778;BME280;32536;47.128;8.746;2023-03-01T14:34:05;91390.81;;;3.14;55.39
46778;BME280;32536;47.128;8.746;2023-03-01T14:36:33;91388.59;;;3.16;55.26
46778;BME280;32536;47.128;8.746;2023-03-01T14:39:01;91393.91;;;3.20;54.94
46778;BME280;32536;47.128;8.746;2023-03-01T14:41:33;91399.28;;;3.27;54.85
46778;BME280;32536;47.128;8.746;2023-03-01T14:44:06;91404.63;;;3.34;54.99
46778;BME280;32536;47.128;8.746;2023-03-01T14:46:40;91408.09;;;3.42;55.09
46778;BME280;32536;47.128;8.746;2023-03-01T14:49:19;91410.38;;;3.44;54.73
46778;BME280;32536;47.128;8.746;2023-03-01T14:52:06;91404.38;;;3.47;54.96
46778;BME280;32536;47.128;8.746;2023-03-01T14:54:46;91406.63;;;3.45;54.85
46778;BME280;32536;47.128;8.746;2023-03-01T14:57:18;91401.69;;;3.43;54.48
46778;BME280;32536;47.128;8.746;2023-03-01T14:59:51;91407.34;;;3.42;55.06
46778;BME280;32536;47.128;8.746;2023-03-01T15:02:25;91401.28;;;3.41;54.68
46778;BME280;32536;47.128;8.746;2023-03-01T15:04:55;91403.56;;;3.43;54.56
46778;BME280;32536;47.128;8.746;2023-03-01T15:07:35;91397.91;;;3.44;54.69
46778;BME280;32536;47.128;8.746;2023-03-01T15:10:06;91402.44;;;3.44;54.79
46778;BME280;32536;47.128;8.746;2023-03-01T15:12:43;91397.91;;;3.44;54.82
46778;BME280;32536;47.128;8.746;2023-03-01T15:15:45;91399.78;;;3.44;54.53
46778;BME280;32536;47.128;8.746;2023-03-01T15:18:16;91404.38;;;3.47;54.90
46778;BME280;32536;47.128;8.746;2023-03-01T15:20:45;91396.47;;;3.50;54.71
46778;BME280;32536;47.128;8.746;2023-03-01T15:23:24;91394.19;;;3.52;54.25
46778;BME280;32536;47.128;8.746;2023-03-01T15:25:53;91399.50;;;3.56;54.40
46778;BME280;32536;47.128;8.746;2023-03-01T15:28:27;91407.50;;;3.60;54.38